Time;durP1;ratioP1;P1;durP2;ratioP2;P2;SDS_P1;SDS_P2;PMS_P1;PMS_P2;Temp;Humidity;BMP_temperature;BMP_pressure;BME280_temperature;BME280_humidity;BME280_pressure;Samples;Min_cycle;Max_cycle;Signal;HPM_P1;HPM_P2
2021/09/26 00:00:11;;;;;;;13.23;2.78;;;;;;;9.94;83.90;100715.88;5104387;28;20035;-76
2021/09/26 00:02:36;;;;;;;14.90;3.40;;;;;;;9.86;84.37;100710.69;5104448;28;20028;-75
2021/09/26 00:05:03;;;;;;;7.22;2.72;;;;;;;9.88;84.13;100715.88;5104317;28;20034;-75
2021/09/26 00:07:28;;;;;;;9.88;3.05;;;;;;;9.91;84.51;100715.88;5103817;28;20034;-75
2021/09/26 00:09:53;;;;;;;14.75;3.55;;;;;;;9.87;84.71;100719.34;5104259;28;20028;-75
2021/09/26 00:12:19;;;;;;;15.40;3.05;;;;;;;9.94;84.51;100728.84;5086063;28;20020;-75
2021/09/26 00:14:45;;;;;;;10.30;2.92;;;;;;;9.89;84.52;100726.25;5104147;28;20088;-75
2021/09/26 00:17:12;;;;;;;9.73;2.75;;;;;;;9.85;84.51;100728.84;5085897;28;20084;-75
2021/09/26 00:19:39;;;;;;;7.55;3.08;;;;;;;9.80;84.63;100734.03;5086104;28;20035;-75
2021/09/26 00:22:05;;;;;;;11.65;2.85;;;;;;;9.81;84.63;100740.94;5103850;28;20024;-75
2021/09/26 00:24:31;;;;;;;11.55;2.33;;;;;;;9.84;84.39;100746.13;5068764;28;20051;-75
2021/09/26 00:26:57;;;;;;;12.30;2.97;;;;;;;9.74;84.31;100747.88;5103841;28;20020;-75
2021/09/26 00:29:23;;;;;;;12.98;2.92;;;;;;;9.65;84.43;100743.53;5103823;28;20016;-74
2021/09/26 00:31:51;;;;;;;15.38;3.13;;;;;;;9.67;84.53;100746.13;5103828;28;20020;-75
2021/09/26 00:34:16;;;;;;;6.43;2.15;;;;;;;9.58;84.74;100743.53;5103523;28;20480;-75
2021/09/26 00:36:42;;;;;;;7.20;2.42;;;;;;;9.51;84.86;100732.28;5103681;28;20036;-76
2021/09/26 00:39:07;;;;;;;12.57;2.33;;;;;;;9.55;84.80;100745.25;5103644;28;20031;-76
2021/09/26 00:41:33;;;;;;;7.13;2.20;;;;;;;9.47;85.25;100735.75;5103806;28;20012;-75
2021/09/26 00:43:59;;;;;;;11.63;3.30;;;;;;;9.48;85.19;100746.09;5103900;28;20027;-76
2021/09/26 00:46:26;;;;;;;7.15;2.28;;;;;;;9.50;85.15;100751.28;5085473;28;20016;-75
2021/09/26 00:48:51;;;;;;;6.63;1.90;;;;;;;9.46;85.46;100754.72;5085486;28;20027;-75
2021/09/26 00:51:18;;;;;;;7.97;2.40;;;;;;;9.42;85.76;100746.09;5103419;28;20024;-75
2021/09/26 00:53:44;;;;;;;16.20;3.15;;;;;;;9.32;86.30;100749.50;5085687;28;20023;-75
2021/09/26 00:56:13;;;;;;;10.52;2.35;;;;;;;9.48;86.32;100753.00;5103518;28;20054;-75
2021/09/26 00:58:40;;;;;;;7.05;2.38;;;;;;;9.43;86.48;100753.00;5085245;28;20020;-75
2021/09/26 01:01:05;;;;;;;14.00;3.05;;;;;;;9.41;86.60;100758.19;5103409;28;20445;-75
2021/09/26 01:03:30;;;;;;;3.22;1.63;;;;;;;9.47;86.12;100769.44;5103524;28;20079;-74
2021/09/26 01:06:14;;;;;;;7.57;2.28;;;;;;;9.51;85.95;100764.25;5103444;28;20023;-76
2021/09/26 01:08:50;;;;;;;7.40;1.90;;;;;;;9.47;86.26;100765.13;5103477;28;20020;-75
2021/09/26 01:11:24;;;;;;;7.93;2.80;;;;;;;9.46;86.45;100767.69;5103699;28;20024;-75
2021/09/26 01:14:19;;;;;;;5.53;2.28;;;;;;;9.39;86.75;100772.84;5103417;28;20030;-76
2021/09/26 01:17:00;;;;;;;8.32;2.83;;;;;;;9.37;86.67;100771.13;5103528;28;20458;-77
2021/09/26 01:19:56;;;;;;;12.27;2.85;;;;;;;9.33;86.85;100774.59;5107118;28;20089;-76
2021/09/26 01:22:42;;;;;;;10.73;2.97;;;;;;;9.37;86.83;100777.19;5107245;28;20252;-75
2021/09/26 01:25:07;;;;;;;8.82;2.42;;;;;;;9.34;86.76;100772.00;5107337;28;20048;-76
2021/09/26 01:27:41;;;;;;;10.60;2.45;;;;;;;9.36;86.79;100780.63;5107461;28;20047;-76
2021/09/26 01:30:35;;;;;;;12.30;2.58;;;;;;;9.33;86.78;100783.19;5107171;28;20028;-77
2021/09/26 01:33:13;;;;;;;11.02;3.08;;;;;;;9.24;86.86;100776.28;5107212;28;20021;-78
2021/09/26 01:36:05;;;;;;;15.85;2.95;;;;;;;9.24;86.56;100775.41;5107535;28;20028;-76
2021/09/26 01:38:40;;;;;;;13.02;2.47;;;;;;;9.18;86.90;100791.81;5065386;28;20040;-77
2021/09/26 01:41:18;;;;;;;11.70;3.47;;;;;;;9.17;87.21;100790.06;5107044;28;20066;-76
2021/09/26 01:43:45;;;;;;;9.93;3.40;;;;;;;9.12;87.37;100795.22;5107050;28;20470;-77
2021/09/26 01:46:19;;;;;;;9.48;2.83;;;;;;;9.07;87.71;100791.78;5107090;28;20035;-77
2021/09/26 01:48:57;;;;;;;12.43;3.63;;;;;;;9.04;87.50;100796.94;5107075;28;20083;-76
2021/09/26 01:51:24;;;;;;;12.30;2.90;;;;;;;9.10;87.33;100796.09;5106558;28;20035;-77
2021/09/26 01:53:50;;;;;;;7.35;2.95;;;;;;;9.08;87.47;100806.44;5088893;28;20017;-75
2021/09/26 01:56:16;;;;;;;16.00;3.88;;;;;;;9.12;87.53;100805.59;5088543;28;20032;-77
2021/09/26 01:58:45;;;;;;;14.45;3.65;;;;;;;9.10;87.49;100802.16;5107020;28;20485;-76
2021/09/26 02:01:14;;;;;;;9.35;3.25;;;;;;;9.11;87.65;100809.03;5106547;28;20024;-76
2021/09/26 02:03:39;;;;;;;14.50;4.53;;;;;;;9.13;87.60;100812.50;5106909;28;20031;-77
2021/09/26 02:06:05;;;;;;;10.80;2.88;;;;;;;9.11;87.71;100802.97;5106478;28;20024;-76
2021/09/26 02:08:33;;;;;;;16.15;3.30;;;;;;;9.16;87.40;100809.94;5088535;28;20028;-75
2021/09/26 02:10:59;;;;;;;9.90;3.25;;;;;;;9.18;87.34;100812.53;5106627;28;20518;-76
2021/09/26 02:13:25;;;;;;;17.55;3.92;;;;;;;9.24;87.53;100822.03;5106903;28;20035;-76
2021/09/26 02:15:51;;;;;;;17.17;3.40;;;;;;;9.26;87.47;100821.22;5106523;28;20527;-76
2021/09/26 02:18:19;;;;;;;14.00;3.03;;;;;;;9.27;87.61;100828.09;5106480;28;20456;-76
2021/09/26 02:20:45;;;;;;;11.52;3.20;;;;;;;9.30;87.73;100825.53;5106342;28;20083;-75
2021/09/26 02:23:11;;;;;;;15.23;4.07;;;;;;;9.38;87.46;100825.56;5105793;28;20049;-76
2021/09/26 02:25:39;;;;;;;13.18;3.35;;;;;;;9.39;87.70;100824.69;5106601;28;20050;-77
2021/09/26 02:28:06;;;;;;;21.27;3.63;;;;;;;9.43;87.50;100828.16;5106037;28;20024;-77
2021/09/26 02:30:31;;;;;;;23.77;4.00;;;;;;;9.44;87.63;100834.22;5106070;28;20024;-76
2021/09/26 02:32:57;;;;;;;29.00;5.15;;;;;;;9.42;87.29;100829.88;5106477;28;20024;-76
2021/09/26 02:35:22;;;;;;;13.45;3.70;;;;;;;9.46;87.28;100835.94;5088022;28;20224;-76
2021/09/26 02:37:48;;;;;;;9.52;3.08;;;;;;;9.46;87.64;100840.25;5105990;28;20028;-76
2021/09/26 02:40:14;;;;;;;13.35;3.28;;;;;;;9.48;87.52;100843.72;5106358;28;20024;-76
2021/09/26 02:43:08;;;;;;;14.50;2.88;;;;;;;9.51;87.49;100841.13;5106080;28;20024;-77
2021/09/26 02:45:45;;;;;;;11.55;2.72;;;;;;;9.59;87.26;100849.81;5106036;28;20119;-77
2021/09/26 02:48:27;;;;;;;16.33;3.70;;;;;;;9.59;87.27;100854.13;5105942;28;20016;-76
2021/09/26 02:50:54;;;;;;;15.25;3.47;;;;;;;9.53;87.59;100855.84;5087797;28;20153;-77
2021/09/26 02:53:20;;;;;;;13.98;3.58;;;;;;;9.48;87.63;100842.00;5105589;28;20036;-77
2021/09/26 02:55:47;;;;;;;14.35;3.55;;;;;;;9.54;87.45;100843.72;5106004;28;20020;-77
2021/09/26 02:58:13;;;;;;;13.90;3.30;;;;;;;9.53;87.63;100854.97;5105667;28;20032;-76
2021/09/26 03:00:41;;;;;;;14.32;3.55;;;;;;;9.57;87.39;100858.44;5105554;28;20027;-77
2021/09/26 03:03:11;;;;;;;5.30;1.90;;;;;;;9.65;87.02;100857.59;5105652;28;20074;-77
2021/09/26 03:05:38;;;;;;;6.57;2.75;;;;;;;9.49;87.58;100835.94;5087299;28;20047;-76
2021/09/26 03:08:05;;;;;;;10.45;3.00;;;;;;;9.54;87.54;100852.38;5105723;28;20016;-77
2021/09/26 03:10:31;;;;;;;19.45;3.90;;;;;;;9.54;87.58;100856.69;5087500;28;20095;-76
2021/09/26 03:12:56;;;;;;;21.65;3.17;;;;;;;9.44;87.90;100844.56;5105502;28;20028;-76
2021/09/26 03:15:22;;;;;;;10.48;2.72;;;;;;;9.52;87.75;100845.47;5087103;28;20039;-75
2021/09/26 03:17:47;;;;;;;12.93;2.88;;;;;;;9.53;87.50;100849.78;5105624;28;20032;-77
2021/09/26 03:20:12;;;;;;;16.08;2.88;;;;;;;9.50;87.46;100844.59;5087021;28;20077;-75
2021/09/26 03:22:38;;;;;;;7.63;2.38;;;;;;;9.48;88.01;100847.19;5086954;28;20020;-75
2021/09/26 03:25:04;;;;;;;16.52;2.67;;;;;;;9.50;87.92;100840.28;5106014;28;20048;-75
2021/09/26 03:27:29;;;;;;;10.18;3.30;;;;;;;9.51;87.81;100841.13;5105861;28;20026;-76
2021/09/26 03:29:54;;;;;;;7.50;2.67;;;;;;;9.53;87.91;100845.47;5105196;28;20020;-75
2021/09/26 03:32:20;;;;;;;10.35;2.88;;;;;;;9.46;88.30;100840.25;5105006;28;20024;-76
2021/09/26 03:34:45;;;;;;;14.32;3.20;;;;;;;9.46;88.30;100842.84;5104924;28;20024;-76
2021/09/26 03:37:11;;;;;;;7.43;2.28;;;;;;;9.50;87.97;100834.22;5104822;28;20047;-75
2021/09/26 03:39:37;;;;;;;13.90;3.35;;;;;;;9.39;88.32;100822.09;5104885;28;20077;-76
2021/09/26 03:42:03;;;;;;;9.27;3.38;;;;;;;9.44;88.42;100827.28;5104322;28;20046;-75
2021/09/26 03:44:28;;;;;;;7.82;2.67;;;;;;;9.44;88.47;100826.44;5104665;28;20476;-75
2021/09/26 03:46:54;;;;;;;5.05;1.95;;;;;;;9.50;88.40;100827.31;5104763;28;20035;-75
2021/09/26 03:49:19;;;;;;;13.20;2.75;;;;;;;9.45;88.73;100835.94;5104890;28;20016;-75
2021/09/26 03:51:46;;;;;;;15.52;3.15;;;;;;;9.42;88.73;100831.63;5104637;28;20040;-75
2021/09/26 03:54:11;;;;;;;6.25;2.50;;;;;;;9.41;88.68;100837.63;5087084;28;20487;-75
2021/09/26 03:56:37;;;;;;;12.57;3.63;;;;;;;9.39;88.50;100841.97;5104651;28;20038;-75
2021/09/26 03:59:02;;;;;;;13.55;2.60;;;;;;;9.29;88.86;100829.00;5104673;28;20049;-76
2021/09/26 04:01:28;;;;;;;13.25;2.50;;;;;;;9.39;88.63;100854.94;5104431;28;20038;-76
2021/09/26 04:03:53;;;;;;;8.80;3.42;;;;;;;9.36;88.85;100849.75;5086381;28;20508;-74
2021/09/26 04:06:18;;;;;;;13.38;3.17;;;;;;;9.31;88.98;100844.53;5105047;28;20428;-75
2021/09/26 04:08:44;;;;;;;15.93;3.92;;;;;;;9.26;89.06;100841.06;5104412;28;20032;-76
2021/09/26 04:11:09;;;;;;;10.52;3.00;;;;;;;9.29;88.89;100851.44;5104479;28;20023;-75
2021/09/26 04:13:35;;;;;;;11.15;2.65;;;;;;;9.33;88.86;100858.34;5104284;28;20024;-74
2021/09/26 04:16:01;;;;;;;11.57;2.97;;;;;;;9.36;88.77;100860.09;5104514;28;20039;-75
2021/09/26 04:18:27;;;;;;;6.30;2.55;;;;;;;9.33;88.96;100853.16;5104218;28;20020;-75
2021/09/26 04:20:53;;;;;;;8.07;2.80;;;;;;;9.36;88.86;100866.13;5104162;28;20119;-75
2021/09/26 04:23:18;;;;;;;6.30;2.20;;;;;;;9.38;88.68;100851.47;5085340;28;20564;-76
2021/09/26 04:25:44;;;;;;;11.60;3.50;;;;;;;9.33;89.22;100855.75;5104095;28;20024;-74
2021/09/26 04:28:09;;;;;;;14.50;3.15;;;;;;;9.29;89.12;100851.44;5104140;28;20036;-76
2021/09/26 04:30:36;;;;;;;7.65;2.50;;;;;;;9.33;89.46;100860.94;5104031;28;20027;-75
2021/09/26 04:33:02;;;;;;;10.32;2.85;;;;;;;9.39;89.17;100863.53;5085525;28;20026;-76
2021/09/26 04:35:28;;;;;;;12.15;3.42;;;;;;;9.38;89.24;100856.66;5104180;28;20024;-78
2021/09/26 04:37:53;;;;;;;11.52;2.20;;;;;;;9.37;89.37;100851.47;5085391;28;20046;-77
2021/09/26 04:40:20;;;;;;;10.80;3.95;;;;;;;9.33;89.78;100855.75;5103830;28;20087;-76
2021/09/26 04:42:45;;;;;;;12.32;3.28;;;;;;;9.43;89.43;100864.44;5103857;28;20519;-76
2021/09/26 04:45:11;;;;;;;10.88;2.42;;;;;;;9.40;89.71;100864.44;5103789;28;20107;-76
2021/09/26 04:47:37;;;;;;;8.65;2.75;;;;;;;9.46;89.37;100873.94;5085539;28;20478;-76
2021/09/26 04:50:05;;;;;;;11.90;2.83;;;;;;;9.48;89.19;100877.41;5103490;28;20044;-76
2021/09/26 04:52:32;;;;;;;4.93;1.65;;;;;;;9.53;89.00;100867.94;5084538;28;20020;-77
2021/09/26 04:54:58;;;;;;;9.93;3.40;;;;;;;9.41;89.26;100863.56;5103701;28;20028;-77
2021/09/26 04:57:23;;;;;;;13.60;4.43;;;;;;;9.51;88.99;100874.81;5103599;28;20077;-77
2021/09/26 04:59:49;;;;;;;11.30;1.63;;;;;;;9.42;89.45;100871.34;5085522;28;20020;-79
2021/09/26 05:02:14;;;;;;;15.65;2.88;;;;;;;9.41;89.49;100874.78;5103732;28;20464;-77
2021/09/26 05:04:40;;;;;;;10.27;2.75;;;;;;;9.44;89.31;100876.53;5103797;28;20380;-77
2021/09/26 05:07:05;;;;;;;6.55;2.38;;;;;;;9.47;89.26;100886.06;5103563;28;20016;-77
2021/09/26 05:09:30;;;;;;;5.50;2.08;;;;;;;9.42;89.27;100879.09;5103684;28;20020;-76
2021/09/26 05:11:56;;;;;;;9.73;2.40;;;;;;;9.35;89.27;100884.25;5103786;28;20024;-75
2021/09/26 05:14:21;;;;;;;16.35;3.00;;;;;;;9.42;88.82;100884.28;5103492;28;20020;-75
2021/09/26 05:16:47;;;;;;;8.07;3.67;;;;;;;9.38;88.75;100879.97;5103608;28;20082;-75
2021/09/26 05:19:13;;;;;;;8.40;2.50;;;;;;;9.39;88.79;100886.88;5103335;28;20211;-75
2021/09/26 05:21:38;;;;;;;9.63;3.03;;;;;;;9.30;88.80;100877.34;5103115;28;20047;-74
2021/09/26 05:24:04;;;;;;;7.45;2.90;;;;;;;9.42;88.82;100893.81;5103193;28;20102;-75
2021/09/26 05:26:29;;;;;;;6.72;1.90;;;;;;;9.42;88.64;100894.66;5103242;28;20243;-75
2021/09/26 05:28:55;;;;;;;10.38;2.63;;;;;;;9.33;88.97;100894.63;5103304;28;20044;-75
2021/09/26 05:31:20;;;;;;;6.63;2.13;;;;;;;9.44;88.83;100891.22;5103408;28;20031;-75
2021/09/26 05:33:45;;;;;;;3.58;1.85;;;;;;;9.48;88.74;100890.38;5103334;28;20020;-75
2021/09/26 05:36:11;;;;;;;8.63;2.20;;;;;;;9.46;89.21;100895.53;5103172;28;20088;-74
2021/09/26 05:38:36;;;;;;;8.15;2.38;;;;;;;9.53;89.32;100899.03;5103187;28;20039;-75
2021/09/26 05:41:01;;;;;;;7.90;2.58;;;;;;;9.60;89.35;100903.38;5103262;28;20024;-76
2021/09/26 05:43:27;;;;;;;5.70;1.90;;;;;;;9.75;89.21;100901.69;5103378;28;20028;-78
2021/09/26 05:45:52;;;;;;;12.05;2.13;;;;;;;9.83;89.62;100889.63;5103216;28;20016;-77
2021/09/26 05:48:17;;;;;;;7.53;1.92;;;;;;;10.09;89.25;100896.59;5084835;28;20016;-77
2021/09/26 05:50:43;;;;;;;9.20;3.08;;;;;;;10.31;89.51;100896.59;5084846;28;20050;-74
2021/09/26 05:53:09;;;;;;;5.60;1.90;;;;;;;10.55;89.43;100905.28;5102901;28;20370;-74
2021/09/26 05:55:34;;;;;;;9.02;1.98;;;;;;;10.81;89.45;100908.75;5103190;28;20053;-75
2021/09/26 05:57:59;;;;;;;5.72;2.20;;;;;;;11.14;88.38;100919.94;5103046;28;20029;-75
2021/09/26 06:00:26;;;;;;;9.85;2.10;;;;;;;11.37;88.77;100912.06;5102906;28;20025;-74
2021/09/26 06:02:52;;;;;;;6.68;2.47;;;;;;;11.62;88.38;100914.56;5084777;28;20032;-75
2021/09/26 06:05:18;;;;;;;9.30;2.38;;;;;;;11.79;88.42;100903.19;5106027;28;20099;-75
2021/09/26 06:07:44;;;;;;;9.00;2.10;;;;;;;12.03;87.05;100906.53;5088164;28;20031;-74
2021/09/26 06:10:10;;;;;;;10.10;2.53;;;;;;;12.03;85.11;100907.41;5106683;28;20058;-75
2021/09/26 06:12:36;;;;;;;10.07;2.30;;;;;;;11.83;83.47;100909.25;5106639;28;20020;-75
2021/09/26 06:15:03;;;;;;;6.22;2.00;;;;;;;11.60;82.74;100907.63;5106451;28;20141;-76
2021/09/26 06:17:30;;;;;;;4.63;1.85;;;;;;;11.35;83.10;100915.53;5106486;28;20024;-74
2021/09/26 06:19:56;;;;;;;6.50;1.70;;;;;;;11.21;82.98;100913.00;5106659;28;20024;-72
2021/09/26 06:22:24;;;;;;;16.98;2.65;;;;;;;11.07;83.33;100919.06;5087821;28;20053;-75
2021/09/26 06:24:50;;;;;;;4.50;1.83;;;;;;;11.07;83.88;100918.22;5106306;28;20071;-74
2021/09/26 06:27:15;;;;;;;8.57;1.55;;;;;;;11.14;83.96;100919.94;5088221;28;20012;-74
2021/09/26 06:29:42;;;;;;;7.60;1.75;;;;;;;11.38;83.90;100921.59;5106219;28;20028;-75
2021/09/26 06:32:07;;;;;;;9.32;2.00;;;;;;;11.68;84.53;100920.63;5106280;28;20459;-75
2021/09/26 06:34:33;;;;;;;8.60;2.15;;;;;;;12.19;85.48;100928.16;5106425;28;20020;-76
2021/09/26 06:36:58;;;;;;;6.55;1.63;;;;;;;12.86;84.65;100921.56;5105833;28;20016;-73
2021/09/26 06:39:25;;;;;;;10.13;2.58;;;;;;;13.19;81.48;100923.81;5106150;28;20048;-74
2021/09/26 06:41:50;;;;;;;6.80;1.67;;;;;;;13.12;79.93;100921.28;5106061;28;20020;-75
2021/09/26 06:44:16;;;;;;;5.40;1.70;;;;;;;12.96;78.65;100930.13;5106075;28;20027;-75
2021/09/26 06:46:42;;;;;;;8.00;1.92;;;;;;;12.82;78.29;100925.06;5106424;28;20055;-76
2021/09/26 06:49:07;;;;;;;9.85;2.28;;;;;;;12.74;78.60;100936.41;5105965;28;20031;-76
2021/09/26 06:51:33;;;;;;;9.07;2.65;;;;;;;12.77;78.39;100936.41;5087209;28;20495;-75
2021/09/26 06:53:59;;;;;;;8.20;1.90;;;;;;;12.83;78.80;100945.00;5087749;28;20464;-74
2021/09/26 06:56:24;;;;;;;8.27;2.13;;;;;;;13.10;79.68;100941.28;5087436;28;20042;-74
2021/09/26 06:58:50;;;;;;;10.63;1.88;;;;;;;13.59;76.90;100938.16;5105910;28;20539;-75
2021/09/26 07:01:15;;;;;;;9.02;1.77;;;;;;;13.87;74.98;100941.28;5105711;28;20031;-75
2021/09/26 07:03:41;;;;;;;4.68;1.80;;;;;;;14.25;72.50;100941.59;5087352;28;20024;-75
2021/09/26 07:06:06;;;;;;;4.43;1.27;;;;;;;14.28;72.08;100951.13;5105774;28;20472;-75
2021/09/26 07:08:31;;;;;;;4.53;1.42;;;;;;;14.28;70.65;100943.28;5105663;28;20016;-76
2021/09/26 07:10:57;;;;;;;4.35;1.33;;;;;;;14.06;72.39;100946.22;5106773;28;20478;-76
2021/09/26 07:13:22;;;;;;;4.85;1.60;;;;;;;14.08;72.10;100948.81;5106876;28;20126;-77
2021/09/26 07:15:48;;;;;;;3.65;1.50;;;;;;;14.26;72.20;100945.09;5105956;28;20043;-77
2021/09/26 07:18:13;;;;;;;6.28;1.85;;;;;;;14.78;72.72;100952.94;5105088;28;20080;-77
2021/09/26 07:20:39;;;;;;;11.75;2.15;;;;;;;15.53;71.25;100954.22;5105279;28;20109;-78
2021/09/26 07:23:04;;;;;;;5.90;2.17;;;;;;;16.20;69.09;100962.41;5104872;28;20024;-75
2021/09/26 07:25:30;;;;;;;7.72;1.70;;;;;;;16.58;66.62;100963.25;5105313;28;20121;-76
2021/09/26 07:27:56;;;;;;;12.52;3.40;;;;;;;16.96;64.04;100962.34;5104982;28;20016;-75
2021/09/26 07:30:22;;;;;;;5.00;2.08;;;;;;;16.99;65.00;100970.13;5105008;28;20082;-74
2021/09/26 07:32:47;;;;;;;2.90;1.13;;;;;;;17.15;63.49;100967.09;5105068;28;20035;-73
2021/09/26 07:35:13;;;;;;;6.65;2.00;;;;;;;17.17;61.90;100973.19;5105041;28;20024;-70
2021/09/26 07:37:39;;;;;;;4.40;1.40;;;;;;;17.04;63.52;100965.63;5104975;28;20035;-64
2021/09/26 07:40:06;;;;;;;7.45;1.80;;;;;;;17.27;61.52;100977.25;5104714;28;20032;-65
2021/09/26 07:42:32;;;;;;;7.20;1.60;;;;;;;17.26;63.49;100974.69;5104586;28;20471;-67
2021/09/26 07:45:02;;;;;;;9.38;2.13;;;;;;;17.55;60.62;100984.38;5104683;28;20035;-66
2021/09/26 07:47:28;;;;;;;5.07;1.70;;;;;;;17.32;61.33;100978.00;5104516;28;20353;-65
2021/09/26 07:49:53;;;;;;;2.50;0.98;;;;;;;17.49;59.73;100986.31;5104477;28;20041;-65
2021/09/26 07:52:18;;;;;;;6.88;1.70;;;;;;;17.18;60.63;100988.88;5104261;28;20515;-65
2021/09/26 07:54:44;;;;;;;9.88;2.20;;;;;;;16.94;60.86;100990.34;5104323;28;20028;-69
2021/09/26 07:57:09;;;;;;;6.60;1.60;;;;;;;16.84;62.48;100989.72;5104416;28;20031;-63
2021/09/26 07:59:34;;;;;;;29.48;3.00;;;;;;;16.69;61.67;101002.31;5104141;28;20047;-69
2021/09/26 08:02:00;;;;;;;9.75;1.83;;;;;;;16.41;62.17;101000.34;5104167;28;20038;-71
2021/09/26 08:04:25;;;;;;;6.18;1.13;;;;;;;16.09;62.14;101013.28;5104288;28;20031;-68
2021/09/26 08:06:51;;;;;;;5.07;1.50;;;;;;;15.71;63.51;101012.31;5085703;28;20019;-68
2021/09/26 08:09:16;;;;;;;3.80;1.45;;;;;;;15.63;64.91;101022.06;5103931;28;20039;-67
2021/09/26 08:11:41;;;;;;;4.80;1.08;;;;;;;15.76;64.04;101020.06;5104123;28;20020;-67
2021/09/26 08:14:07;;;;;;;1.05;0.68;;;;;;;15.68;64.01;101015.88;5104097;28;20103;-67
2021/09/26 08:16:32;;;;;;;8.48;1.58;;;;;;;15.39;65.96;101014.66;5103459;28;20487;-65
2021/09/26 08:18:57;;;;;;;10.75;1.65;;;;;;;15.60;66.52;101013.41;5103962;28;20101;-70
2021/09/26 08:21:23;;;;;;;12.60;2.05;;;;;;;15.77;65.28;101013.97;5103669;28;20020;-74
2021/09/26 08:23:48;;;;;;;16.38;1.80;;;;;;;15.65;65.94;101008.06;5103579;28;20616;-68
2021/09/26 08:26:14;;;;;;;9.48;2.00;;;;;;;15.74;66.01;101009.63;5103949;28;20111;-73
2021/09/26 08:28:39;;;;;;;3.10;1.02;;;;;;;15.82;65.44;101018.19;5103778;28;20340;-71
2021/09/26 08:31:06;;;;;;;10.73;1.13;;;;;;;15.57;65.54;101020.44;5103619;28;20052;-68
2021/09/26 08:33:31;;;;;;;14.55;1.80;;;;;;;15.38;66.27;101025.16;5085538;28;20028;-68
2021/09/26 08:35:58;;;;;;;13.35;1.52;;;;;;;15.36;66.68;101026.06;5103598;28;20109;-66
2021/09/26 08:38:23;;;;;;;2.25;0.80;;;;;;;15.62;65.08;101016.00;5103306;28;20020;-64
2021/09/26 08:40:50;;;;;;;4.47;1.42;;;;;;;15.32;66.54;101013.06;5103597;28;20020;-65
2021/09/26 08:43:19;;;;;;;8.05;1.52;;;;;;;15.46;66.39;101021.50;5103440;28;20019;-68
2021/09/26 08:45:45;;;;;;;7.03;1.40;;;;;;;15.63;67.16;101022.06;5103549;28;20522;-69
2021/09/26 08:48:12;;;;;;;3.67;1.30;;;;;;;15.80;65.92;101027.81;5103596;28;20031;-75
2021/09/26 08:50:38;;;;;;;7.32;1.55;;;;;;;15.86;66.45;101024.25;5103375;28;20028;-71
2021/09/26 08:53:05;;;;;;;10.10;2.20;;;;;;;16.16;65.20;101023.63;5103260;28;20039;-70
2021/09/26 08:55:31;;;;;;;6.40;1.45;;;;;;;16.38;64.22;101029.25;5103403;28;20035;-65
2021/09/26 08:57:57;;;;;;;11.43;2.25;;;;;;;16.55;64.39;101028.84;5103574;28;20610;-72
2021/09/26 09:00:22;;;;;;;7.78;1.42;;;;;;;16.82;64.14;101020.38;5103510;28;20035;-74
2021/09/26 09:02:48;;;;;;;9.18;1.42;;;;;;;17.31;63.36;101028.78;5085077;28;20020;-72
2021/09/26 09:05:34;;;;;;;6.72;1.40;;;;;;;17.79;62.12;101033.59;5085007;28;20110;-69
2021/09/26 09:08:05;;;;;;;5.60;1.42;;;;;;;18.03;60.13;101034.66;5103326;28;20043;-68
2021/09/26 09:10:43;;;;;;;6.70;1.85;;;;;;;18.12;59.46;101023.03;5103403;28;20032;-71
2021/09/26 09:13:11;;;;;;;6.38;1.10;;;;;;;17.95;60.09;101018.25;5103376;28;20475;-70
2021/09/26 09:15:38;;;;;;;4.20;1.25;;;;;;;18.18;59.30;101022.84;5103299;28;20083;-72
2021/09/26 09:18:04;;;;;;;4.13;1.30;;;;;;;18.54;56.93;101027.00;5103191;28;20024;-70
2021/09/26 09:20:31;;;;;;;4.57;0.90;;;;;;;18.45;56.88;101027.31;5103323;28;20034;-71
2021/09/26 09:23:10;;;;;;;3.20;0.80;;;;;;;18.20;57.47;101026.28;5103223;28;20028;-65
2021/09/26 09:25:46;;;;;;;11.35;1.65;;;;;;;17.82;58.72;101033.50;5103336;28;20051;-70
2021/09/26 09:28:23;;;;;;;10.18;1.92;;;;;;;18.19;59.63;101037.72;5103623;28;20032;-64
2021/09/26 09:30:54;;;;;;;8.50;1.92;;;;;;;18.56;58.55;101030.44;5103196;28;20080;-69
2021/09/26 09:33:21;;;;;;;7.30;2.37;;;;;;;19.16;58.07;101032.00;5085778;28;20020;-69
2021/09/26 09:35:49;;;;;;;5.25;1.05;;;;;;;19.88;53.89;101041.75;5103346;28;20035;-76
2021/09/26 09:38:33;;;;;;;3.90;0.85;;;;;;;20.04;51.62;101032.41;5102868;28;20027;-77
2021/09/26 09:41:00;;;;;;;11.07;1.63;;;;;;;19.62;53.52;101038.31;5106916;28;20347;-73
2021/09/26 09:43:28;;;;;;;5.47;1.00;;;;;;;19.94;52.47;101041.53;5106925;28;20024;-72
2021/09/26 09:45:57;;;;;;;5.15;1.63;;;;;;;19.59;52.84;101043.69;5107081;28;20020;-75
2021/09/26 09:48:24;;;;;;;6.05;1.20;;;;;;;18.91;53.64;101029.34;5106973;28;20055;-73
2021/09/26 09:51:02;;;;;;;9.00;1.45;;;;;;;18.62;54.92;101044.28;5106775;28;20376;-74
2021/09/26 09:53:47;;;;;;;5.63;1.48;;;;;;;18.95;54.32;101036.19;5106729;28;20050;-68
2021/09/26 09:56:21;;;;;;;4.88;1.65;;;;;;;19.32;53.96;101031.47;5106895;28;20020;-69
2021/09/26 09:58:56;;;;;;;8.00;1.20;;;;;;;19.11;52.82;101033.06;5106686;28;20096;-69
2021/09/26 10:01:30;;;;;;;12.57;1.42;;;;;;;18.57;54.56;101040.06;5106652;28;20024;-68
2021/09/26 10:03:57;;;;;;;7.40;1.30;;;;;;;18.00;55.09;101045.25;5106905;28;20027;-69
2021/09/26 10:06:34;;;;;;;5.95;1.85;;;;;;;17.55;56.87;101043.88;5106410;28;20024;-70
2021/09/26 10:09:19;;;;;;;10.32;1.50;;;;;;;17.37;57.87;101040.00;5106564;28;20024;-69
2021/09/26 10:11:57;;;;;;;6.05;1.48;;;;;;;17.77;57.96;101043.28;5106473;28;20418;-68
2021/09/26 10:14:26;;;;;;;8.25;1.90;;;;;;;17.94;56.32;101027.91;5106388;28;20077;-68
2021/09/26 10:16:52;;;;;;;7.75;1.20;;;;;;;18.49;56.05;101028.91;5106386;28;20016;-69
2021/09/26 10:19:21;;;;;;;11.75;2.00;;;;;;;19.23;56.16;101026.53;5106262;28;20034;-68
2021/09/26 10:21:51;;;;;;;9.50;1.90;;;;;;;20.03;52.12;101032.47;5105965;28;20099;-68
2021/09/26 10:24:22;;;;;;;6.60;1.05;;;;;;;20.28;49.38;101034.13;5106094;28;20048;-69
2021/09/26 10:26:48;;;;;;;13.93;2.80;;;;;;;19.11;51.44;101025.19;5106233;28;20024;-70
2021/09/26 10:29:17;;;;;;;9.82;1.67;;;;;;;18.51;54.37;101028.88;5106258;28;20487;-69
2021/09/26 10:31:46;;;;;;;3.25;0.98;;;;;;;18.55;53.13;101026.09;5106058;28;20031;-69
2021/09/26 10:34:12;;;;;;;5.25;1.35;;;;;;;18.07;54.58;101028.38;5106001;28;20031;-69
2021/09/26 10:36:39;;;;;;;8.48;1.17;;;;;;;17.74;55.76;101031.09;5105824;28;20210;-69
2021/09/26 10:39:07;;;;;;;8.93;2.38;;;;;;;17.43;56.40;101019.69;5106133;28;20028;-69
2021/09/26 10:41:32;;;;;;;7.63;1.70;;;;;;;17.51;56.96;101029.13;5105544;28;20044;-68
2021/09/26 10:44:22;;;;;;;11.77;2.08;;;;;;;17.48;57.39;101034.47;5106105;28;20017;-68
2021/09/26 10:47:06;;;;;;;8.82;1.80;;;;;;;17.43;57.73;101034.56;5087577;28;20016;-68
2021/09/26 10:49:40;;;;;;;8.70;1.60;;;;;;;18.00;57.24;101037.38;5105391;28;20028;-69
2021/09/26 10:52:20;;;;;;;8.45;1.75;;;;;;;19.04;55.93;101029.78;5104800;28;20399;-69
2021/09/26 10:54:46;;;;;;;5.57;1.55;;;;;;;20.40;53.47;101022.25;5106021;28;20271;-70
2021/09/26 10:57:11;;;;;;;5.53;1.83;;;;;;;21.74;48.42;101015.75;5105767;28;20103;-70
2021/09/26 10:59:45;;;;;;;5.68;1.23;;;;;;;21.88;46.19;101007.22;5105800;28;20456;-69
2021/09/26 11:02:23;;;;;;;5.47;1.83;;;;;;;21.44;46.01;101014.41;5105543;28;20024;-69
2021/09/26 11:05:00;;;;;;;7.57;1.70;;;;;;;21.25;47.17;101015.22;5087265;28;20405;-70
2021/09/26 11:07:31;;;;;;;7.00;1.67;;;;;;;21.77;46.38;101015.63;5105076;28;20463;-68
2021/09/26 11:10:06;;;;;;;3.50;0.80;;;;;;;22.14;43.21;101016.53;5087235;28;20050;-67
2021/09/26 11:12:46;;;;;;;6.22;2.00;;;;;;;21.98;43.63;101016.41;5105397;28;20016;-68
2021/09/26 11:15:17;;;;;;;4.97;1.40;;;;;;;22.35;44.13;101016.44;5105383;28;20727;-69
2021/09/26 11:17:45;;;;;;;6.25;1.73;;;;;;;23.21;43.15;101011.38;5105313;28;20032;-70
2021/09/26 11:20:31;;;;;;;7.95;2.08;;;;;;;22.76;43.79;101004.75;5105186;28;20020;-70
2021/09/26 11:23:06;;;;;;;6.63;1.23;;;;;;;21.74;43.07;101011.28;5104836;28;20394;-69
2021/09/26 11:25:57;;;;;;;8.13;1.75;;;;;;;20.37;45.37;101019.72;5105418;28;20028;-70
2021/09/26 11:28:36;;;;;;;7.78;1.27;;;;;;;19.61;47.93;101019.03;5105030;28;20024;-69
2021/09/26 11:31:05;;;;;;;6.18;1.67;;;;;;;19.29;49.11;101024.56;5104934;28;20388;-70